createdAt,value
2022-12-31T00:00:15.143Z,0.63
2022-12-31T00:02:42.151Z,0.50
2022-12-31T00:05:10.284Z,0.80
2022-12-31T00:10:04.070Z,0.90
2022-12-31T00:12:30.923Z,0.60
2022-12-31T00:14:59.192Z,0.47
2022-12-31T00:17:28.487Z,0.50
2022-12-31T00:20:01.385Z,0.50
2022-12-31T00:22:31.771Z,0.43
2022-12-31T00:25:12.903Z,0.73
2022-12-31T00:27:39.722Z,0.60
2022-12-31T00:30:07.475Z,0.40
2022-12-31T00:32:34.250Z,0.30
2022-12-31T00:35:01.283Z,0.63
2022-12-31T00:37:28.238Z,0.50
2022-12-31T00:39:55.778Z,0.30
2022-12-31T00:42:22.616Z,0.40
2022-12-31T00:44:49.534Z,0.30
2022-12-31T00:47:16.426Z,0.40
2022-12-31T00:49:43.291Z,0.40
2022-12-31T00:52:19.405Z,0.30
2022-12-31T00:54:46.495Z,0.40
2022-12-31T00:57:15.025Z,0.40
2022-12-31T00:59:41.968Z,0.20
2022-12-31T01:02:09.158Z,0.27
2022-12-31T01:04:36.492Z,0.30
2022-12-31T01:07:03.240Z,0.33
2022-12-31T01:09:30.338Z,0.30
2022-12-31T01:11:57.175Z,0.20
2022-12-31T01:14:24.401Z,0.40
2022-12-31T01:16:52.993Z,0.27
2022-12-31T01:19:26.174Z,0.30
2022-12-31T01:21:53.433Z,0.20
2022-12-31T01:24:20.787Z,0.30
2022-12-31T01:26:49.408Z,0.30
2022-12-31T01:29:17.115Z,0.27
2022-12-31T01:31:44.073Z,0.47
2022-12-31T01:34:11.205Z,0.40
2022-12-31T01:36:38.887Z,0.40
2022-12-31T01:39:07.457Z,0.40
2022-12-31T01:41:37.627Z,0.30
2022-12-31T01:44:13.833Z,0.20
2022-12-31T01:46:42.970Z,0.30
2022-12-31T01:49:13.944Z,0.30
2022-12-31T01:51:41.784Z,0.43
2022-12-31T01:54:09.852Z,0.30
2022-12-31T01:56:38.106Z,0.30
2022-12-31T01:59:07.101Z,0.30
2022-12-31T02:01:35.871Z,0.40
2022-12-31T02:04:07.252Z,0.63
2022-12-31T02:06:40.895Z,0.30
2022-12-31T02:09:08.311Z,0.20
2022-12-31T02:11:38.008Z,0.20
2022-12-31T02:14:09.644Z,0.27
2022-12-31T02:16:40.190Z,0.30
2022-12-31T02:19:10.096Z,0.40
2022-12-31T02:21:48.942Z,0.43
2022-12-31T02:24:24.743Z,0.30
2022-12-31T02:27:03.924Z,0.30
2022-12-31T02:30:02.650Z,0.30
2022-12-31T02:32:37.094Z,0.40
2022-12-31T02:35:14.889Z,0.33
2022-12-31T02:37:43.642Z,0.37
2022-12-31T02:40:13.630Z,0.33
2022-12-31T02:42:40.647Z,0.50
2022-12-31T02:45:08.452Z,0.60
2022-12-31T02:47:38.256Z,0.40
2022-12-31T02:50:27.874Z,0.30
2022-12-31T02:53:06.818Z,0.43
2022-12-31T02:56:18.255Z,0.43
2022-12-31T02:59:26.984Z,0.50
2022-12-31T03:02:16.439Z,0.70
2022-12-31T03:04:51.132Z,0.50
2022-12-31T03:07:29.490Z,0.97
2022-12-31T03:09:56.735Z,0.80
2022-12-31T03:12:48.276Z,0.57
2022-12-31T03:15:23.878Z,0.60
2022-12-31T03:17:59.675Z,0.70
2022-12-31T03:20:51.793Z,0.67
2022-12-31T03:23:37.575Z,0.83
2022-12-31T03:26:12.020Z,0.97
2022-12-31T03:28:40.683Z,0.70
2022-12-31T03:31:08.346Z,0.73
2022-12-31T03:33:39.517Z,0.60
2022-12-31T03:36:12.291Z,0.80
2022-12-31T03:38:39.581Z,0.70
2022-12-31T03:41:06.563Z,0.73
2022-12-31T03:43:33.305Z,0.63
2022-12-31T03:46:01.716Z,0.80
2022-12-31T03:48:28.761Z,0.60
2022-12-31T03:50:55.720Z,0.50
2022-12-31T03:53:22.595Z,0.70
2022-12-31T03:55:53.512Z,0.70
2022-12-31T03:58:21.340Z,0.60
2022-12-31T04:00:48.331Z,0.67
2022-12-31T04:03:15.979Z,0.70
2022-12-31T04:05:42.819Z,0.60
2022-12-31T04:08:09.760Z,0.70
2022-12-31T04:10:36.612Z,0.60
2022-12-31T04:13:05.008Z,0.70
2022-12-31T04:15:32.048Z,0.50
2022-12-31T04:17:59.137Z,0.60
2022-12-31T04:20:26.257Z,0.60
2022-12-31T04:22:53.128Z,0.70
2022-12-31T04:25:20.012Z,0.80
2022-12-31T04:27:47.747Z,0.33
2022-12-31T04:30:15.085Z,0.80
2022-12-31T04:32:42.525Z,0.70
2022-12-31T04:35:10.401Z,0.67
2022-12-31T04:37:37.215Z,1.00
2022-12-31T04:40:06.630Z,0.70
2022-12-31T04:42:34.511Z,0.67
2022-12-31T04:45:01.617Z,0.80
2022-12-31T04:47:28.578Z,0.60
2022-12-31T04:49:55.596Z,0.73
2022-12-31T04:52:22.659Z,0.87
2022-12-31T04:54:49.737Z,0.57
2022-12-31T04:57:16.702Z,0.67
2022-12-31T04:59:43.688Z,0.50
2022-12-31T05:02:10.824Z,0.70
2022-12-31T05:04:37.894Z,0.87
2022-12-31T05:07:04.884Z,0.60
2022-12-31T05:09:31.674Z,0.60
2022-12-31T05:11:58.563Z,0.70
2022-12-31T05:14:26.531Z,0.53
2022-12-31T05:16:53.602Z,0.80
2022-12-31T05:19:20.583Z,0.60
2022-12-31T05:22:07.390Z,0.70
2022-12-31T05:24:34.591Z,0.77
2022-12-31T05:27:01.439Z,0.80
2022-12-31T05:29:28.239Z,0.70
2022-12-31T05:31:55.079Z,0.47
2022-12-31T05:34:22.132Z,0.60
2022-12-31T05:36:48.923Z,0.53
2022-12-31T05:39:15.813Z,0.50
2022-12-31T05:41:42.549Z,0.60
2022-12-31T05:44:11.066Z,0.60
2022-12-31T05:46:37.950Z,0.70
2022-12-31T05:49:05.162Z,0.67
2022-12-31T05:51:31.936Z,1.23
2022-12-31T05:53:59.149Z,0.60
2022-12-31T05:56:26.158Z,0.57
2022-12-31T05:58:52.918Z,0.80
2022-12-31T06:01:19.861Z,0.80
2022-12-31T06:03:47.233Z,0.80
2022-12-31T06:06:14.377Z,0.50
2022-12-31T06:08:41.324Z,0.90
2022-12-31T06:11:08.260Z,0.70
2022-12-31T06:13:35.251Z,1.40
2022-12-31T06:16:10.354Z,0.90
2022-12-31T06:18:38.480Z,0.77
2022-12-31T06:21:05.575Z,0.73
2022-12-31T06:23:32.324Z,1.10
2022-12-31T06:26:04.529Z,1.00
2022-12-31T06:28:31.545Z,0.80
2022-12-31T06:31:03.015Z,1.30
2022-12-31T06:33:30.281Z,0.80
2022-12-31T06:35:58.099Z,0.60
2022-12-31T06:38:30.061Z,0.97
2022-12-31T06:40:57.137Z,0.67
2022-12-31T06:43:23.988Z,0.60
2022-12-31T06:45:50.919Z,0.63
2022-12-31T06:48:18.858Z,0.87
2022-12-31T06:50:45.708Z,0.93
2022-12-31T06:53:12.955Z,1.03
2022-12-31T06:55:40.105Z,0.80
2022-12-31T06:58:09.222Z,0.70
2022-12-31T07:00:36.064Z,1.00
2022-12-31T07:03:12.751Z,0.87
2022-12-31T07:05:46.310Z,0.90
2022-12-31T07:08:16.154Z,0.73
2022-12-31T07:11:20.674Z,0.60
2022-12-31T07:13:59.697Z,0.70
2022-12-31T07:16:36.876Z,0.97
2022-12-31T07:19:12.738Z,0.63
2022-12-31T07:21:41.591Z,0.90
2022-12-31T07:24:10.116Z,1.00
2022-12-31T07:26:56.952Z,0.60
2022-12-31T07:29:45.232Z,0.93
2022-12-31T07:32:20.198Z,1.00
2022-12-31T07:35:11.567Z,1.00
2022-12-31T07:37:57.097Z,0.93
2022-12-31T07:41:10.077Z,1.10
2022-12-31T07:43:46.196Z,0.83
2022-12-31T07:46:19.624Z,0.80
2022-12-31T07:48:46.768Z,0.80
2022-12-31T07:51:13.924Z,1.07
2022-12-31T07:53:40.722Z,0.67
2022-12-31T07:56:09.111Z,0.80
2022-12-31T07:58:39.865Z,0.80
2022-12-31T08:01:11.598Z,0.90
2022-12-31T08:04:03.668Z,0.90
2022-12-31T08:06:51.706Z,1.00
2022-12-31T08:09:24.594Z,1.00
2022-12-31T08:12:00.418Z,0.80
2022-12-31T08:14:27.749Z,1.23
2022-12-31T08:16:55.432Z,1.30
2022-12-31T08:19:28.694Z,0.90
2022-12-31T08:22:10.030Z,1.50
2022-12-31T08:25:04.469Z,0.77
2022-12-31T08:27:52.570Z,0.80
2022-12-31T08:30:21.289Z,1.07
2022-12-31T08:32:54.310Z,1.00
2022-12-31T08:35:53.150Z,1.00
2022-12-31T08:38:38.513Z,1.07
2022-12-31T08:41:14.203Z,1.10
2022-12-31T08:44:10.851Z,1.10
2022-12-31T08:46:55.667Z,0.73
2022-12-31T08:49:26.815Z,1.00
2022-12-31T08:51:53.937Z,1.10
2022-12-31T08:54:21.362Z,1.27
2022-12-31T08:57:11.172Z,1.03
2022-12-31T08:59:56.299Z,0.93
2022-12-31T09:02:46.186Z,0.97
2022-12-31T09:05:23.370Z,1.00
2022-12-31T09:08:16.882Z,1.07
2022-12-31T09:10:55.461Z,1.00
2022-12-31T09:13:32.640Z,1.20
2022-12-31T09:16:19.593Z,1.30
2022-12-31T09:18:48.001Z,1.30
2022-12-31T09:21:15.660Z,1.77
2022-12-31T09:23:43.856Z,1.40
2022-12-31T09:26:32.605Z,1.03
2022-12-31T09:29:24.510Z,2.07
2022-12-31T09:32:22.692Z,1.30
2022-12-31T09:35:11.764Z,0.97
2022-12-31T09:37:46.583Z,1.20
2022-12-31T09:40:28.679Z,0.90
2022-12-31T09:42:58.644Z,1.03
2022-12-31T09:46:03.322Z,1.33
2022-12-31T09:48:48.501Z,1.30
2022-12-31T09:51:25.317Z,1.30
2022-12-31T09:54:25.606Z,1.03
2022-12-31T09:57:19.795Z,1.20
2022-12-31T09:59:53.116Z,1.50
2022-12-31T10:02:39.007Z,1.10
2022-12-31T10:05:15.074Z,1.20
2022-12-31T10:07:53.514Z,0.80
2022-12-31T10:10:25.051Z,1.40
2022-12-31T10:12:58.094Z,1.33
2022-12-31T10:15:49.730Z,1.10
2022-12-31T10:18:41.958Z,1.40
2022-12-31T10:21:16.811Z,2.23
2022-12-31T10:24:21.467Z,1.30
2022-12-31T10:27:01.100Z,1.40
2022-12-31T10:29:45.005Z,1.20
2022-12-31T10:32:26.261Z,1.60
2022-12-31T10:35:25.502Z,0.90
2022-12-31T10:38:14.145Z,1.20
2022-12-31T10:41:18.772Z,1.47
2022-12-31T10:44:23.701Z,1.50
2022-12-31T10:47:36.641Z,1.20
2022-12-31T10:50:12.920Z,1.20
2022-12-31T10:53:08.234Z,1.23
2022-12-31T10:56:01.499Z,1.70
2022-12-31T10:58:52.940Z,1.13
2022-12-31T11:01:33.833Z,1.03
2022-12-31T11:04:25.983Z,1.23
2022-12-31T11:07:05.359Z,1.00
2022-12-31T11:09:54.673Z,1.03
2022-12-31T11:12:42.953Z,1.40
2022-12-31T11:15:21.919Z,0.97
2022-12-31T11:17:51.744Z,1.40
2022-12-31T11:20:39.455Z,0.97
2022-12-31T11:23:24.917Z,1.20
2022-12-31T11:26:19.429Z,1.10
2022-12-31T11:28:58.742Z,1.30
2022-12-31T11:31:35.135Z,1.40
2022-12-31T11:34:20.887Z,1.30
2022-12-31T11:37:17.350Z,1.30
2022-12-31T11:40:19.203Z,1.50
2022-12-31T11:42:49.827Z,1.30
2022-12-31T11:45:28.770Z,1.50
2022-12-31T11:51:36.512Z,1.87
2022-12-31T11:54:37.643Z,1.33
2022-12-31T11:57:18.711Z,1.40
2022-12-31T11:59:45.557Z,1.50
2022-12-31T12:02:25.332Z,2.47
2022-12-31T12:04:53.259Z,1.60
2022-12-31T12:07:24.247Z,1.07
2022-12-31T12:09:53.316Z,1.90
2022-12-31T12:12:21.262Z,1.33
2022-12-31T12:14:55.616Z,1.40
2022-12-31T12:17:32.574Z,1.30
2022-12-31T12:20:22.743Z,1.53
2022-12-31T12:32:23.061Z,2.03
2022-12-31T12:34:51.237Z,1.40
2022-12-31T12:37:38.089Z,1.63
2022-12-31T12:40:09.556Z,1.50
2022-12-31T12:42:45.887Z,1.50
2022-12-31T12:45:22.316Z,2.07
2022-12-31T12:47:54.110Z,1.50
2022-12-31T12:50:25.119Z,1.97
2022-12-31T12:53:08.080Z,2.00
2022-12-31T12:55:52.642Z,1.57
2022-12-31T12:58:33.770Z,1.27
2022-12-31T13:01:30.598Z,2.10
2022-12-31T13:07:11.412Z,2.03
2022-12-31T13:10:17.835Z,1.80
2022-12-31T13:13:23.733Z,1.80
2022-12-31T13:16:07.316Z,1.80
2022-12-31T13:19:05.200Z,1.50
2022-12-31T13:21:47.035Z,2.00
2022-12-31T13:24:26.185Z,2.50
2022-12-31T13:27:19.497Z,1.90
2022-12-31T13:29:49.094Z,1.90
2022-12-31T13:32:19.894Z,1.70
2022-12-31T13:34:51.098Z,1.60
2022-12-31T13:37:26.220Z,2.27
2022-12-31T13:40:02.985Z,1.70
2022-12-31T13:42:40.352Z,1.63
2022-12-31T13:45:14.456Z,1.87
2022-12-31T13:47:51.981Z,1.93
2022-12-31T13:50:29.537Z,1.67
2022-12-31T13:53:15.147Z,1.53
2022-12-31T13:55:59.400Z,1.60
2022-12-31T13:58:46.008Z,1.50
2022-12-31T14:01:32.077Z,1.70
2022-12-31T14:04:17.138Z,2.50
2022-12-31T14:06:55.040Z,1.60
2022-12-31T14:09:34.899Z,1.63
2022-12-31T14:12:05.837Z,1.60
2022-12-31T14:15:07.895Z,2.00
2022-12-31T14:17:46.222Z,1.90
2022-12-31T14:20:42.694Z,1.50
2022-12-31T14:23:37.275Z,1.50
2022-12-31T14:26:27.738Z,1.63
2022-12-31T14:29:12.224Z,1.20
2022-12-31T14:32:12.385Z,1.90
2022-12-31T14:34:57.977Z,1.60
2022-12-31T14:37:42.891Z,1.70
2022-12-31T14:40:19.772Z,1.57
2022-12-31T14:42:49.593Z,1.60
2022-12-31T14:45:54.110Z,1.37
2022-12-31T14:48:51.840Z,1.60
2022-12-31T14:51:18.922Z,1.67
2022-12-31T14:53:53.648Z,1.43
2022-12-31T14:56:31.211Z,1.47
2022-12-31T14:59:02.188Z,1.60
2022-12-31T15:01:29.388Z,1.60
2022-12-31T15:03:58.324Z,1.67
2022-12-31T15:06:36.552Z,1.70
2022-12-31T15:09:28.288Z,2.10
2022-12-31T15:12:04.407Z,1.80
2022-12-31T15:15:08.981Z,1.30
2022-12-31T15:17:47.762Z,1.47
2022-12-31T15:20:39.116Z,1.43
2022-12-31T15:23:15.154Z,1.43
2022-12-31T15:25:48.185Z,2.00
2022-12-31T15:28:39.867Z,1.80
2022-12-31T15:31:18.809Z,1.60
2022-12-31T15:34:05.475Z,1.70
2022-12-31T15:36:38.931Z,1.43
2022-12-31T15:39:12.159Z,1.63
2022-12-31T15:42:10.140Z,1.40
2022-12-31T15:45:01.169Z,1.43
2022-12-31T15:47:34.949Z,1.63
2022-12-31T15:50:07.392Z,1.40
2022-12-31T15:52:40.769Z,1.60
2022-12-31T15:55:08.547Z,1.40
2022-12-31T15:57:42.286Z,1.70
2022-12-31T16:00:20.405Z,1.57
2022-12-31T16:02:54.547Z,1.40
2022-12-31T16:05:26.967Z,2.13
2022-12-31T16:07:58.324Z,1.50
2022-12-31T16:10:29.020Z,1.57
2022-12-31T16:12:57.619Z,1.57
2022-12-31T16:15:26.751Z,1.57
2022-12-31T16:18:03.165Z,1.50
2022-12-31T16:20:32.362Z,1.40
2022-12-31T16:23:01.863Z,1.60
2022-12-31T16:25:32.874Z,1.70
2022-12-31T16:28:02.131Z,1.63
2022-12-31T16:30:33.580Z,1.40
2022-12-31T16:33:04.342Z,1.47
2022-12-31T16:35:36.707Z,1.60
2022-12-31T16:38:18.177Z,2.10
2022-12-31T16:41:03.538Z,1.83
2022-12-31T16:43:42.298Z,1.50
2022-12-31T16:46:18.126Z,1.53
2022-12-31T16:48:51.044Z,1.80
2022-12-31T16:51:20.828Z,1.50
2022-12-31T16:53:48.367Z,1.53
2022-12-31T16:56:34.040Z,1.63
2022-12-31T16:59:07.773Z,2.23
2022-12-31T17:01:35.997Z,1.60
2022-12-31T17:04:06.372Z,2.30
2022-12-31T17:06:33.821Z,1.50
2022-12-31T17:09:04.696Z,1.67
2022-12-31T17:11:35.206Z,2.47
2022-12-31T17:14:08.157Z,2.40
2022-12-31T17:16:37.076Z,1.60
2022-12-31T17:19:04.256Z,2.60
2022-12-31T17:21:32.189Z,1.53
2022-12-31T17:24:05.585Z,1.93
2022-12-31T17:26:34.878Z,1.83
2022-12-31T17:29:02.598Z,1.70
2022-12-31T17:31:39.251Z,1.97
2022-12-31T17:34:12.668Z,1.77
2022-12-31T17:37:02.579Z,1.77
2022-12-31T17:39:43.524Z,1.63
2022-12-31T17:42:12.036Z,1.57
2022-12-31T17:44:41.477Z,1.93
2022-12-31T17:47:12.031Z,1.90
2022-12-31T17:49:38.887Z,1.50
2022-12-31T17:52:11.758Z,1.83
2022-12-31T17:54:38.782Z,1.70
2022-12-31T17:57:05.633Z,2.10
2022-12-31T17:59:33.670Z,1.63
2022-12-31T18:02:04.454Z,1.90
2022-12-31T18:04:31.529Z,1.50
2022-12-31T18:06:58.263Z,2.53
2022-12-31T18:09:25.206Z,1.57
2022-12-31T18:11:55.539Z,1.70
2022-12-31T18:14:25.730Z,1.83
2022-12-31T18:16:52.851Z,2.07
2022-12-31T18:19:45.624Z,1.73
2022-12-31T18:22:07.284Z,2.10
2022-12-31T18:24:34.602Z,1.67
2022-12-31T18:27:01.377Z,1.83
2022-12-31T18:29:28.277Z,2.00
2022-12-31T18:31:55.136Z,1.93
2022-12-31T18:34:22.210Z,1.53
2022-12-31T18:36:49.093Z,1.90
2022-12-31T18:39:15.806Z,1.60
2022-12-31T18:41:51.184Z,2.87
2022-12-31T18:44:18.714Z,1.90
2022-12-31T18:46:45.642Z,1.80
2022-12-31T18:49:12.618Z,1.97
2022-12-31T18:51:39.840Z,2.17
2022-12-31T18:54:07.115Z,1.80
2022-12-31T18:56:33.875Z,2.00
2022-12-31T18:59:02.529Z,1.90
2022-12-31T19:01:37.895Z,2.00
2022-12-31T19:04:22.898Z,1.80
2022-12-31T19:06:56.617Z,2.00
2022-12-31T19:09:44.675Z,2.00
2022-12-31T19:12:14.799Z,1.53
2022-12-31T19:14:41.916Z,1.93
2022-12-31T19:19:35.117Z,2.10
2022-12-31T19:22:03.147Z,1.70
2022-12-31T19:24:30.136Z,1.87
2022-12-31T19:26:56.966Z,2.20
2022-12-31T19:29:27.956Z,1.90
2022-12-31T19:31:55.539Z,2.20
2022-12-31T19:34:22.854Z,1.87
2022-12-31T19:36:49.730Z,2.33
2022-12-31T19:39:18.738Z,2.87
2022-12-31T19:41:46.116Z,2.33
2022-12-31T19:44:17.861Z,1.97
2022-12-31T19:46:45.304Z,1.90
2022-12-31T19:49:15.815Z,1.60
2022-12-31T19:51:42.878Z,1.30
2022-12-31T19:54:11.403Z,2.13
2022-12-31T19:56:38.949Z,1.90
2022-12-31T19:59:06.458Z,2.17
2022-12-31T20:01:33.506Z,2.00
2022-12-31T20:04:00.865Z,2.57
2022-12-31T20:06:27.696Z,2.50
2022-12-31T20:08:54.458Z,1.60
2022-12-31T20:11:22.859Z,1.80
2022-12-31T20:13:52.472Z,2.20
2022-12-31T20:16:21.437Z,1.70
2022-12-31T20:18:48.917Z,2.63
2022-12-31T20:21:21.965Z,1.43
2022-12-31T20:23:50.347Z,2.00
2022-12-31T20:26:18.293Z,2.00
2022-12-31T20:28:45.501Z,2.20
2022-12-31T20:31:15.941Z,2.33
2022-12-31T20:33:56.484Z,1.80
2022-12-31T20:36:24.198Z,1.87
2022-12-31T20:38:51.164Z,2.00
2022-12-31T20:41:20.062Z,2.00
2022-12-31T20:43:47.383Z,1.80
2022-12-31T20:46:19.927Z,2.00
2022-12-31T20:48:48.706Z,1.80
2022-12-31T20:51:16.534Z,3.27
2022-12-31T20:53:51.168Z,2.13
2022-12-31T20:56:18.812Z,2.00
2022-12-31T20:58:45.603Z,1.80
2022-12-31T21:01:13.347Z,2.10
2022-12-31T21:06:29.499Z,2.00
2022-12-31T21:08:58.594Z,1.87
2022-12-31T21:11:44.132Z,2.43
2022-12-31T21:14:10.945Z,1.63
2022-12-31T21:16:38.057Z,1.70
2022-12-31T21:19:05.791Z,2.20
2022-12-31T21:21:32.987Z,2.23
2022-12-31T21:24:00.411Z,2.33
2022-12-31T21:26:28.047Z,1.77
2022-12-31T21:28:55.050Z,1.87
2022-12-31T21:31:22.025Z,1.63
2022-12-31T21:33:55.556Z,1.40
2022-12-31T21:36:28.382Z,1.70
2022-12-31T21:38:55.794Z,2.17
2022-12-31T21:41:44.364Z,1.97
2022-12-31T21:44:11.421Z,2.03
2022-12-31T21:46:38.266Z,1.60
2022-12-31T21:49:05.209Z,2.17
2022-12-31T21:51:32.029Z,1.70
2022-12-31T21:53:59.089Z,2.47
2022-12-31T21:56:26.225Z,1.57
2022-12-31T21:59:12.548Z,1.63
2022-12-31T22:01:58.106Z,1.90
2022-12-31T22:05:00.367Z,1.73
2022-12-31T22:07:12.345Z,2.10
2022-12-31T22:09:39.356Z,1.80
2022-12-31T22:12:06.475Z,2.00
2022-12-31T22:14:33.527Z,1.90
2022-12-31T22:17:00.317Z,1.80
2022-12-31T22:19:27.149Z,2.13
2022-12-31T22:21:53.958Z,2.23
2022-12-31T22:24:26.039Z,1.70
2022-12-31T22:26:55.733Z,1.83
2022-12-31T22:29:23.697Z,2.30
2022-12-31T22:31:50.752Z,1.90
2022-12-31T22:34:18.143Z,2.00
2022-12-31T22:36:45.070Z,1.80
2022-12-31T22:39:44.732Z,1.57
2022-12-31T22:42:03.628Z,1.73
2022-12-31T22:44:30.783Z,2.33
2022-12-31T22:46:57.853Z,2.00
2022-12-31T22:49:25.877Z,2.73
2022-12-31T22:51:56.617Z,1.50
2022-12-31T22:54:26.395Z,1.80
2022-12-31T22:56:53.650Z,1.70
2022-12-31T22:59:20.554Z,1.90
2022-12-31T23:01:47.563Z,4.97
2022-12-31T23:04:14.505Z,3.43
2022-12-31T23:06:44.351Z,2.80
2022-12-31T23:09:31.865Z,2.20
2022-12-31T23:12:00.125Z,2.30
2022-12-31T23:14:45.751Z,2.43
2022-12-31T23:17:36.740Z,1.90
2022-12-31T23:20:24.572Z,2.07
2022-12-31T23:23:11.962Z,2.37
2022-12-31T23:25:47.450Z,2.00
2022-12-31T23:28:17.621Z,2.27
2022-12-31T23:30:44.417Z,2.10
2022-12-31T23:33:16.776Z,1.80
2022-12-31T23:35:44.666Z,2.00
2022-12-31T23:38:12.033Z,2.00
2022-12-31T23:40:38.905Z,1.87
2022-12-31T23:43:07.697Z,1.73
2022-12-31T23:45:35.208Z,1.80
2022-12-31T23:48:05.291Z,1.80
2022-12-31T23:50:33.103Z,2.10
2022-12-31T23:53:00.472Z,2.10
2022-12-31T23:55:28.184Z,1.57
2022-12-31T23:57:55.587Z,1.50
